sensor_id;sensor_type;location;lat;lon;timestamp;P1;durP1;ratioP1;P2;durP2;ratioP2
11614;SDS011;5863;52.832;4.758;2022-10-16T00:00:37;11.38;;;2.33;;
11614;SDS011;5863;52.832;4.758;2022-10-16T00:03:05;17.02;;;2.67;;
11614;SDS011;5863;52.832;4.758;2022-10-16T00:05:33;8.23;;;2.33;;
11614;SDS011;5863;52.832;4.758;2022-10-16T00:08:04;9.18;;;2.00;;
11614;SDS011;5863;52.832;4.758;2022-10-16T00:10:31;9.48;;;2.17;;
11614;SDS011;5863;52.832;4.758;2022-10-16T00:12:59;10.10;;;1.95;;
11614;SDS011;5863;52.832;4.758;2022-10-16T00:15:26;15.07;;;2.17;;
11614;SDS011;5863;52.832;4.758;2022-10-16T00:17:53;9.88;;;2.53;;
11614;SDS011;5863;52.832;4.758;2022-10-16T00:20:20;12.45;;;3.05;;
11614;SDS011;5863;52.832;4.758;2022-10-16T00:22:46;8.18;;;2.33;;
11614;SDS011;5863;52.832;4.758;2022-10-16T00:25:13;14.48;;;2.60;;
11614;SDS011;5863;52.832;4.758;2022-10-16T00:27:40;11.90;;;2.03;;
11614;SDS011;5863;52.832;4.758;2022-10-16T00:30:09;10.38;;;2.08;;
11614;SDS011;5863;52.832;4.758;2022-10-16T00:32:36;11.07;;;2.30;;
11614;SDS011;5863;52.832;4.758;2022-10-16T00:35:03;8.07;;;2.10;;
11614;SDS011;5863;52.832;4.758;2022-10-16T00:37:30;12.68;;;2.78;;
11614;SDS011;5863;52.832;4.758;2022-10-16T00:39:58;9.10;;;2.50;;
11614;SDS011;5863;52.832;4.758;2022-10-16T00:42:25;9.45;;;2.15;;
11614;SDS011;5863;52.832;4.758;2022-10-16T00:44:52;8.88;;;2.38;;
11614;SDS011;5863;52.832;4.758;2022-10-16T00:47:24;11.43;;;2.35;;
11614;SDS011;5863;52.832;4.758;2022-10-16T00:49:56;9.57;;;1.80;;
11614;SDS011;5863;52.832;4.758;2022-10-16T00:52:26;15.93;;;2.58;;
11614;SDS011;5863;52.832;4.758;2022-10-16T00:54:52;9.93;;;2.03;;
11614;SDS011;5863;52.832;4.758;2022-10-16T00:57:20;8.00;;;2.22;;
11614;SDS011;5863;52.832;4.758;2022-10-16T00:59:47;13.23;;;2.22;;
11614;SDS011;5863;52.832;4.758;2022-10-16T01:02:15;10.18;;;2.40;;
11614;SDS011;5863;52.832;4.758;2022-10-16T01:04:44;10.55;;;2.53;;
11614;SDS011;5863;52.832;4.758;2022-10-16T01:07:14;14.30;;;2.60;;
11614;SDS011;5863;52.832;4.758;2022-10-16T01:09:52;11.95;;;2.15;;
11614;SDS011;5863;52.832;4.758;2022-10-16T01:12:27;18.15;;;2.85;;
11614;SDS011;5863;52.832;4.758;2022-10-16T01:15:02;10.27;;;2.90;;
11614;SDS011;5863;52.832;4.758;2022-10-16T01:17:38;13.15;;;2.83;;
11614;SDS011;5863;52.832;4.758;2022-10-16T01:20:13;10.57;;;2.67;;
11614;SDS011;5863;52.832;4.758;2022-10-16T01:22:50;13.80;;;2.70;;
11614;SDS011;5863;52.832;4.758;2022-10-16T01:25:30;13.02;;;2.60;;
11614;SDS011;5863;52.832;4.758;2022-10-16T01:28:07;14.38;;;2.20;;
11614;SDS011;5863;52.832;4.758;2022-10-16T01:30:37;15.55;;;2.92;;
11614;SDS011;5863;52.832;4.758;2022-10-16T01:33:06;14.13;;;3.10;;
11614;SDS011;5863;52.832;4.758;2022-10-16T01:35:38;13.05;;;2.63;;
11614;SDS011;5863;52.832;4.758;2022-10-16T01:38:10;11.80;;;2.67;;
11614;SDS011;5863;52.832;4.758;2022-10-16T01:40:44;19.25;;;3.42;;
11614;SDS011;5863;52.832;4.758;2022-10-16T01:43:19;13.63;;;2.53;;
11614;SDS011;5863;52.832;4.758;2022-10-16T01:45:48;11.05;;;2.42;;
11614;SDS011;5863;52.832;4.758;2022-10-16T01:48:17;10.25;;;2.53;;
11614;SDS011;5863;52.832;4.758;2022-10-16T01:50:48;10.93;;;2.60;;
11614;SDS011;5863;52.832;4.758;2022-10-16T01:53:20;11.95;;;2.70;;
11614;SDS011;5863;52.832;4.758;2022-10-16T01:55:48;7.90;;;2.17;;
11614;SDS011;5863;52.832;4.758;2022-10-16T01:58:17;15.43;;;3.33;;
11614;SDS011;5863;52.832;4.758;2022-10-16T02:00:44;16.50;;;2.90;;
11614;SDS011;5863;52.832;4.758;2022-10-16T02:03:14;9.80;;;2.38;;
11614;SDS011;5863;52.832;4.758;2022-10-16T02:05:45;12.23;;;3.00;;
11614;SDS011;5863;52.832;4.758;2022-10-16T02:08:15;15.18;;;2.97;;
11614;SDS011;5863;52.832;4.758;2022-10-16T02:10:41;16.52;;;2.70;;
11614;SDS011;5863;52.832;4.758;2022-10-16T02:13:09;16.10;;;3.03;;
11614;SDS011;5863;52.832;4.758;2022-10-16T02:15:40;13.10;;;2.67;;
11614;SDS011;5863;52.832;4.758;2022-10-16T02:18:06;19.00;;;3.55;;
11614;SDS011;5863;52.832;4.758;2022-10-16T02:20:36;15.30;;;2.78;;
11614;SDS011;5863;52.832;4.758;2022-10-16T02:23:09;13.93;;;3.33;;
11614;SDS011;5863;52.832;4.758;2022-10-16T02:25:43;12.73;;;2.70;;
11614;SDS011;5863;52.832;4.758;2022-10-16T02:28:14;13.60;;;2.95;;
11614;SDS011;5863;52.832;4.758;2022-10-16T02:30:46;10.95;;;2.72;;
11614;SDS011;5863;52.832;4.758;2022-10-16T02:33:17;13.45;;;2.50;;
11614;SDS011;5863;52.832;4.758;2022-10-16T02:35:46;17.20;;;2.78;;
11614;SDS011;5863;52.832;4.758;2022-10-16T02:38:14;13.95;;;2.53;;
11614;SDS011;5863;52.832;4.758;2022-10-16T02:40:42;20.50;;;2.97;;
11614;SDS011;5863;52.832;4.758;2022-10-16T02:43:09;13.90;;;2.67;;
11614;SDS011;5863;52.832;4.758;2022-10-16T02:45:37;16.65;;;3.03;;
11614;SDS011;5863;52.832;4.758;2022-10-16T02:48:05;15.48;;;2.85;;
11614;SDS011;5863;52.832;4.758;2022-10-16T02:50:32;17.23;;;2.65;;
11614;SDS011;5863;52.832;4.758;2022-10-16T02:52:59;10.82;;;2.47;;
11614;SDS011;5863;52.832;4.758;2022-10-16T02:55:26;14.27;;;2.35;;
11614;SDS011;5863;52.832;4.758;2022-10-16T02:57:53;10.68;;;2.50;;
11614;SDS011;5863;52.832;4.758;2022-10-16T03:00:20;17.63;;;2.83;;
11614;SDS011;5863;52.832;4.758;2022-10-16T03:02:47;16.88;;;2.83;;
11614;SDS011;5863;52.832;4.758;2022-10-16T03:05:15;11.07;;;2.92;;
11614;SDS011;5863;52.832;4.758;2022-10-16T03:07:42;11.13;;;2.10;;
11614;SDS011;5863;52.832;4.758;2022-10-16T03:10:11;9.02;;;2.22;;
11614;SDS011;5863;52.832;4.758;2022-10-16T03:12:37;6.85;;;2.25;;
11614;SDS011;5863;52.832;4.758;2022-10-16T03:15:05;14.32;;;2.33;;
11614;SDS011;5863;52.832;4.758;2022-10-16T03:17:33;10.32;;;2.53;;
11614;SDS011;5863;52.832;4.758;2022-10-16T03:19:59;10.25;;;2.35;;
11614;SDS011;5863;52.832;4.758;2022-10-16T03:22:27;9.35;;;2.03;;
11614;SDS011;5863;52.832;4.758;2022-10-16T03:24:56;6.43;;;2.20;;
11614;SDS011;5863;52.832;4.758;2022-10-16T03:27:23;11.00;;;2.55;;
11614;SDS011;5863;52.832;4.758;2022-10-16T03:29:50;17.40;;;2.88;;
11614;SDS011;5863;52.832;4.758;2022-10-16T03:32:16;17.45;;;4.53;;
11614;SDS011;5863;52.832;4.758;2022-10-16T03:34:43;12.95;;;2.90;;
11614;SDS011;5863;52.832;4.758;2022-10-16T03:37:10;13.18;;;2.42;;
11614;SDS011;5863;52.832;4.758;2022-10-16T03:39:38;14.70;;;2.60;;
11614;SDS011;5863;52.832;4.758;2022-10-16T03:42:05;9.45;;;2.22;;
11614;SDS011;5863;52.832;4.758;2022-10-16T03:44:32;14.15;;;2.47;;
11614;SDS011;5863;52.832;4.758;2022-10-16T03:46:58;11.25;;;2.40;;
11614;SDS011;5863;52.832;4.758;2022-10-16T03:49:25;14.88;;;2.35;;
11614;SDS011;5863;52.832;4.758;2022-10-16T03:51:51;15.20;;;3.03;;
11614;SDS011;5863;52.832;4.758;2022-10-16T03:54:18;14.60;;;2.95;;
11614;SDS011;5863;52.832;4.758;2022-10-16T03:56:46;14.05;;;2.85;;
11614;SDS011;5863;52.832;4.758;2022-10-16T03:59:13;11.88;;;2.25;;
11614;SDS011;5863;52.832;4.758;2022-10-16T04:01:40;10.43;;;2.25;;
11614;SDS011;5863;52.832;4.758;2022-10-16T04:04:06;15.52;;;2.63;;
11614;SDS011;5863;52.832;4.758;2022-10-16T04:06:33;9.50;;;2.38;;
11614;SDS011;5863;52.832;4.758;2022-10-16T04:09:00;16.10;;;2.53;;
11614;SDS011;5863;52.832;4.758;2022-10-16T04:11:26;11.82;;;2.28;;
11614;SDS011;5863;52.832;4.758;2022-10-16T04:13:54;17.67;;;3.28;;
11614;SDS011;5863;52.832;4.758;2022-10-16T04:16:21;14.60;;;2.72;;
11614;SDS011;5863;52.832;4.758;2022-10-16T04:18:48;12.35;;;2.90;;
11614;SDS011;5863;52.832;4.758;2022-10-16T04:21:14;13.52;;;2.78;;
11614;SDS011;5863;52.832;4.758;2022-10-16T04:23:41;18.55;;;3.10;;
11614;SDS011;5863;52.832;4.758;2022-10-16T04:26:08;14.02;;;2.50;;
11614;SDS011;5863;52.832;4.758;2022-10-16T04:28:36;11.45;;;2.20;;
11614;SDS011;5863;52.832;4.758;2022-10-16T04:31:04;8.82;;;2.38;;
11614;SDS011;5863;52.832;4.758;2022-10-16T04:33:32;10.73;;;2.33;;
11614;SDS011;5863;52.832;4.758;2022-10-16T04:35:59;14.27;;;2.50;;
11614;SDS011;5863;52.832;4.758;2022-10-16T04:38:27;13.80;;;2.75;;
11614;SDS011;5863;52.832;4.758;2022-10-16T04:40:55;19.40;;;2.80;;
11614;SDS011;5863;52.832;4.758;2022-10-16T04:43:22;9.77;;;2.38;;
11614;SDS011;5863;52.832;4.758;2022-10-16T04:45:49;18.33;;;2.72;;
11614;SDS011;5863;52.832;4.758;2022-10-16T04:48:18;9.88;;;2.55;;
11614;SDS011;5863;52.832;4.758;2022-10-16T04:50:44;17.95;;;2.80;;
11614;SDS011;5863;52.832;4.758;2022-10-16T04:53:11;12.32;;;2.80;;
11614;SDS011;5863;52.832;4.758;2022-10-16T04:55:38;15.38;;;2.92;;
11614;SDS011;5863;52.832;4.758;2022-10-16T04:58:05;20.98;;;3.38;;
11614;SDS011;5863;52.832;4.758;2022-10-16T05:00:31;18.40;;;3.38;;
11614;SDS011;5863;52.832;4.758;2022-10-16T05:02:58;13.32;;;2.75;;
11614;SDS011;5863;52.832;4.758;2022-10-16T05:05:27;20.10;;;4.00;;
11614;SDS011;5863;52.832;4.758;2022-10-16T05:07:54;19.73;;;3.70;;
11614;SDS011;5863;52.832;4.758;2022-10-16T05:10:21;19.05;;;3.78;;
11614;SDS011;5863;52.832;4.758;2022-10-16T05:12:48;18.73;;;3.85;;
11614;SDS011;5863;52.832;4.758;2022-10-16T05:15:16;22.30;;;3.42;;
11614;SDS011;5863;52.832;4.758;2022-10-16T05:17:43;11.23;;;2.60;;
11614;SDS011;5863;52.832;4.758;2022-10-16T05:20:10;18.88;;;3.38;;
11614;SDS011;5863;52.832;4.758;2022-10-16T05:22:38;20.58;;;3.42;;
11614;SDS011;5863;52.832;4.758;2022-10-16T05:25:05;27.17;;;3.92;;
11614;SDS011;5863;52.832;4.758;2022-10-16T05:27:32;18.20;;;3.33;;
11614;SDS011;5863;52.832;4.758;2022-10-16T05:29:59;25.75;;;3.60;;
11614;SDS011;5863;52.832;4.758;2022-10-16T05:32:25;20.10;;;3.55;;
11614;SDS011;5863;52.832;4.758;2022-10-16T05:34:52;16.63;;;3.25;;
11614;SDS011;5863;52.832;4.758;2022-10-16T05:37:19;17.70;;;3.22;;
11614;SDS011;5863;52.832;4.758;2022-10-16T05:39:47;20.60;;;3.45;;
11614;SDS011;5863;52.832;4.758;2022-10-16T05:42:13;15.63;;;3.15;;
11614;SDS011;5863;52.832;4.758;2022-10-16T05:44:40;18.27;;;3.10;;
11614;SDS011;5863;52.832;4.758;2022-10-16T05:47:07;20.42;;;3.88;;
11614;SDS011;5863;52.832;4.758;2022-10-16T05:49:34;18.77;;;3.28;;
11614;SDS011;5863;52.832;4.758;2022-10-16T05:52:01;25.05;;;3.88;;
11614;SDS011;5863;52.832;4.758;2022-10-16T05:54:27;16.90;;;3.55;;
11614;SDS011;5863;52.832;4.758;2022-10-16T05:56:55;16.27;;;3.40;;
11614;SDS011;5863;52.832;4.758;2022-10-16T05:59:22;15.80;;;2.83;;
11614;SDS011;5863;52.832;4.758;2022-10-16T06:01:49;12.35;;;2.10;;
11614;SDS011;5863;52.832;4.758;2022-10-16T06:04:15;18.88;;;2.83;;
11614;SDS011;5863;52.832;4.758;2022-10-16T06:06:42;13.45;;;2.72;;
11614;SDS011;5863;52.832;4.758;2022-10-16T06:09:09;14.48;;;2.75;;
11614;SDS011;5863;52.832;4.758;2022-10-16T06:11:36;17.67;;;3.05;;
11614;SDS011;5863;52.832;4.758;2022-10-16T06:14:04;15.93;;;3.10;;
11614;SDS011;5863;52.832;4.758;2022-10-16T06:16:32;18.83;;;2.80;;
11614;SDS011;5863;52.832;4.758;2022-10-16T06:18:59;14.38;;;3.17;;
11614;SDS011;5863;52.832;4.758;2022-10-16T06:21:31;15.50;;;3.00;;
11614;SDS011;5863;52.832;4.758;2022-10-16T06:23:58;17.92;;;3.78;;
11614;SDS011;5863;52.832;4.758;2022-10-16T06:26:26;17.73;;;3.33;;
11614;SDS011;5863;52.832;4.758;2022-10-16T06:28:54;23.15;;;3.20;;
11614;SDS011;5863;52.832;4.758;2022-10-16T06:31:24;16.00;;;3.17;;
11614;SDS011;5863;52.832;4.758;2022-10-16T06:33:52;15.50;;;3.45;;
11614;SDS011;5863;52.832;4.758;2022-10-16T06:36:20;20.25;;;3.95;;
11614;SDS011;5863;52.832;4.758;2022-10-16T06:38:47;21.70;;;3.80;;
11614;SDS011;5863;52.832;4.758;2022-10-16T06:41:15;18.40;;;3.40;;
11614;SDS011;5863;52.832;4.758;2022-10-16T06:43:43;12.35;;;2.78;;
11614;SDS011;5863;52.832;4.758;2022-10-16T06:46:10;14.00;;;3.17;;
11614;SDS011;5863;52.832;4.758;2022-10-16T06:48:41;16.25;;;3.50;;
11614;SDS011;5863;52.832;4.758;2022-10-16T06:51:08;20.45;;;3.40;;
11614;SDS011;5863;52.832;4.758;2022-10-16T06:53:37;20.80;;;3.05;;
11614;SDS011;5863;52.832;4.758;2022-10-16T06:56:07;19.13;;;3.53;;
11614;SDS011;5863;52.832;4.758;2022-10-16T06:58:34;20.88;;;3.75;;
11614;SDS011;5863;52.832;4.758;2022-10-16T07:01:01;17.38;;;3.10;;
11614;SDS011;5863;52.832;4.758;2022-10-16T07:03:28;17.55;;;3.35;;
11614;SDS011;5863;52.832;4.758;2022-10-16T07:05:56;21.95;;;3.65;;
11614;SDS011;5863;52.832;4.758;2022-10-16T07:08:24;31.73;;;4.28;;
11614;SDS011;5863;52.832;4.758;2022-10-16T07:10:57;20.45;;;3.75;;
11614;SDS011;5863;52.832;4.758;2022-10-16T07:13:24;28.30;;;3.63;;
11614;SDS011;5863;52.832;4.758;2022-10-16T07:15:51;23.20;;;3.80;;
11614;SDS011;5863;52.832;4.758;2022-10-16T07:18:18;18.10;;;3.10;;
11614;SDS011;5863;52.832;4.758;2022-10-16T07:20:45;23.67;;;3.47;;
11614;SDS011;5863;52.832;4.758;2022-10-16T07:23:13;24.17;;;4.10;;
11614;SDS011;5863;52.832;4.758;2022-10-16T07:25:39;15.60;;;3.20;;
11614;SDS011;5863;52.832;4.758;2022-10-16T07:28:06;14.82;;;3.00;;
11614;SDS011;5863;52.832;4.758;2022-10-16T07:30:34;18.48;;;3.40;;
11614;SDS011;5863;52.832;4.758;2022-10-16T07:33:02;16.20;;;3.90;;
11614;SDS011;5863;52.832;4.758;2022-10-16T07:35:29;13.00;;;2.85;;
11614;SDS011;5863;52.832;4.758;2022-10-16T07:37:56;13.75;;;3.33;;
11614;SDS011;5863;52.832;4.758;2022-10-16T07:40:24;13.70;;;3.10;;
11614;SDS011;5863;52.832;4.758;2022-10-16T07:42:52;16.30;;;3.15;;
11614;SDS011;5863;52.832;4.758;2022-10-16T07:45:18;17.58;;;3.63;;
11614;SDS011;5863;52.832;4.758;2022-10-16T07:47:45;21.80;;;3.22;;
11614;SDS011;5863;52.832;4.758;2022-10-16T07:50:12;12.73;;;2.83;;
11614;SDS011;5863;52.832;4.758;2022-10-16T07:52:39;11.57;;;2.90;;
11614;SDS011;5863;52.832;4.758;2022-10-16T07:55:05;17.67;;;2.83;;
11614;SDS011;5863;52.832;4.758;2022-10-16T07:57:34;18.15;;;2.90;;
11614;SDS011;5863;52.832;4.758;2022-10-16T08:00:00;14.80;;;2.63;;
11614;SDS011;5863;52.832;4.758;2022-10-16T08:02:27;12.65;;;2.78;;
11614;SDS011;5863;52.832;4.758;2022-10-16T08:04:55;11.73;;;2.58;;
11614;SDS011;5863;52.832;4.758;2022-10-16T08:07:21;13.05;;;2.53;;
11614;SDS011;5863;52.832;4.758;2022-10-16T08:09:48;16.83;;;2.53;;
11614;SDS011;5863;52.832;4.758;2022-10-16T08:12:16;15.73;;;2.80;;
11614;SDS011;5863;52.832;4.758;2022-10-16T08:14:44;14.80;;;2.75;;
11614;SDS011;5863;52.832;4.758;2022-10-16T08:17:13;12.30;;;2.95;;
11614;SDS011;5863;52.832;4.758;2022-10-16T08:19:43;12.73;;;2.78;;
11614;SDS011;5863;52.832;4.758;2022-10-16T08:22:10;16.25;;;3.08;;
11614;SDS011;5863;52.832;4.758;2022-10-16T08:24:37;16.02;;;3.10;;
11614;SDS011;5863;52.832;4.758;2022-10-16T08:27:04;16.77;;;3.08;;
11614;SDS011;5863;52.832;4.758;2022-10-16T08:29:31;10.40;;;2.45;;
11614;SDS011;5863;52.832;4.758;2022-10-16T08:31:59;14.05;;;2.63;;
11614;SDS011;5863;52.832;4.758;2022-10-16T08:34:25;9.18;;;2.30;;
11614;SDS011;5863;52.832;4.758;2022-10-16T08:36:52;10.63;;;2.28;;
11614;SDS011;5863;52.832;4.758;2022-10-16T08:39:19;12.23;;;2.80;;
11614;SDS011;5863;52.832;4.758;2022-10-16T08:41:59;13.75;;;2.83;;
11614;SDS011;5863;52.832;4.758;2022-10-16T08:44:47;8.40;;;2.10;;
11614;SDS011;5863;52.832;4.758;2022-10-16T08:47:48;9.38;;;2.38;;
11614;SDS011;5863;52.832;4.758;2022-10-16T08:50:22;11.38;;;2.28;;
11614;SDS011;5863;52.832;4.758;2022-10-16T08:52:53;11.65;;;2.35;;
11614;SDS011;5863;52.832;4.758;2022-10-16T08:55:30;11.75;;;2.03;;
11614;SDS011;5863;52.832;4.758;2022-10-16T08:58:05;10.25;;;2.70;;
11614;SDS011;5863;52.832;4.758;2022-10-16T09:00:38;12.73;;;2.50;;
11614;SDS011;5863;52.832;4.758;2022-10-16T09:03:09;13.93;;;2.67;;
11614;SDS011;5863;52.832;4.758;2022-10-16T09:05:46;13.05;;;2.58;;
11614;SDS011;5863;52.832;4.758;2022-10-16T09:08:35;15.52;;;2.80;;
11614;SDS011;5863;52.832;4.758;2022-10-16T09:11:10;13.15;;;2.67;;
11614;SDS011;5863;52.832;4.758;2022-10-16T09:13:44;10.85;;;3.10;;
11614;SDS011;5863;52.832;4.758;2022-10-16T09:16:18;7.82;;;2.67;;
11614;SDS011;5863;52.832;4.758;2022-10-16T09:18:53;14.57;;;3.10;;
11614;SDS011;5863;52.832;4.758;2022-10-16T09:21:25;11.48;;;2.67;;
11614;SDS011;5863;52.832;4.758;2022-10-16T09:23:55;15.73;;;2.90;;
11614;SDS011;5863;52.832;4.758;2022-10-16T09:26:24;13.27;;;2.58;;
11614;SDS011;5863;52.832;4.758;2022-10-16T09:28:51;17.10;;;2.63;;
11614;SDS011;5863;52.832;4.758;2022-10-16T09:31:19;13.48;;;3.05;;
11614;SDS011;5863;52.832;4.758;2022-10-16T09:33:48;10.13;;;2.35;;
11614;SDS011;5863;52.832;4.758;2022-10-16T09:36:20;14.13;;;2.85;;
11614;SDS011;5863;52.832;4.758;2022-10-16T09:38:48;7.57;;;2.20;;
11614;SDS011;5863;52.832;4.758;2022-10-16T09:41:16;11.25;;;3.00;;
11614;SDS011;5863;52.832;4.758;2022-10-16T09:43:49;11.02;;;2.67;;
11614;SDS011;5863;52.832;4.758;2022-10-16T09:46:21;7.95;;;2.42;;
11614;SDS011;5863;52.832;4.758;2022-10-16T09:48:54;9.75;;;2.65;;
11614;SDS011;5863;52.832;4.758;2022-10-16T09:51:24;9.77;;;2.35;;
11614;SDS011;5863;52.832;4.758;2022-10-16T09:53:54;11.35;;;2.65;;
11614;SDS011;5863;52.832;4.758;2022-10-16T09:56:23;10.55;;;2.58;;
11614;SDS011;5863;52.832;4.758;2022-10-16T09:58:52;11.80;;;2.10;;
11614;SDS011;5863;52.832;4.758;2022-10-16T10:01:20;11.20;;;2.70;;
11614;SDS011;5863;52.832;4.758;2022-10-16T10:03:48;8.38;;;2.55;;
11614;SDS011;5863;52.832;4.758;2022-10-16T10:06:21;14.07;;;2.58;;
11614;SDS011;5863;52.832;4.758;2022-10-16T10:11:47;15.30;;;2.22;;
11614;SDS011;5863;52.832;4.758;2022-10-16T10:14:20;11.43;;;2.40;;
11614;SDS011;5863;52.832;4.758;2022-10-16T10:16:49;11.93;;;2.42;;
11614;SDS011;5863;52.832;4.758;2022-10-16T10:19:17;14.75;;;2.38;;
11614;SDS011;5863;52.832;4.758;2022-10-16T10:21:47;14.45;;;2.60;;
11614;SDS011;5863;52.832;4.758;2022-10-16T10:24:14;12.25;;;2.72;;
11614;SDS011;5863;52.832;4.758;2022-10-16T10:26:44;14.07;;;2.42;;
11614;SDS011;5863;52.832;4.758;2022-10-16T10:29:18;12.60;;;2.53;;
11614;SDS011;5863;52.832;4.758;2022-10-16T10:31:55;12.73;;;2.40;;
11614;SDS011;5863;52.832;4.758;2022-10-16T10:34:35;11.45;;;2.70;;
11614;SDS011;5863;52.832;4.758;2022-10-16T10:37:21;8.27;;;2.00;;
11614;SDS011;5863;52.832;4.758;2022-10-16T10:40:01;12.95;;;2.55;;
11614;SDS011;5863;52.832;4.758;2022-10-16T10:42:39;10.65;;;2.38;;
11614;SDS011;5863;52.832;4.758;2022-10-16T10:45:18;9.15;;;2.28;;
11614;SDS011;5863;52.832;4.758;2022-10-16T10:47:59;10.52;;;2.83;;
11614;SDS011;5863;52.832;4.758;2022-10-16T10:50:39;9.70;;;2.42;;
11614;SDS011;5863;52.832;4.758;2022-10-16T10:53:11;8.75;;;2.33;;
11614;SDS011;5863;52.832;4.758;2022-10-16T10:55:48;11.10;;;2.30;;
11614;SDS011;5863;52.832;4.758;2022-10-16T10:58:24;9.88;;;2.55;;
11614;SDS011;5863;52.832;4.758;2022-10-16T11:01:09;12.90;;;2.13;;
11614;SDS011;5863;52.832;4.758;2022-10-16T11:03:45;14.20;;;2.28;;
11614;SDS011;5863;52.832;4.758;2022-10-16T11:06:23;6.45;;;1.85;;
11614;SDS011;5863;52.832;4.758;2022-10-16T11:08:57;16.40;;;2.70;;
11614;SDS011;5863;52.832;4.758;2022-10-16T11:11:30;5.47;;;1.70;;
11614;SDS011;5863;52.832;4.758;2022-10-16T11:14:02;11.85;;;2.50;;
11614;SDS011;5863;52.832;4.758;2022-10-16T11:16:33;10.52;;;2.72;;
11614;SDS011;5863;52.832;4.758;2022-10-16T11:19:05;10.07;;;2.20;;
11614;SDS011;5863;52.832;4.758;2022-10-16T11:21:42;9.43;;;2.35;;
11614;SDS011;5863;52.832;4.758;2022-10-16T11:24:16;13.23;;;2.65;;
11614;SDS011;5863;52.832;4.758;2022-10-16T11:26:48;10.82;;;2.60;;
11614;SDS011;5863;52.832;4.758;2022-10-16T11:29:19;10.40;;;2.10;;
11614;SDS011;5863;52.832;4.758;2022-10-16T11:31:52;9.15;;;1.83;;
11614;SDS011;5863;52.832;4.758;2022-10-16T11:34:24;12.35;;;2.53;;
11614;SDS011;5863;52.832;4.758;2022-10-16T11:36:56;7.43;;;1.67;;
11614;SDS011;5863;52.832;4.758;2022-10-16T11:39:29;9.50;;;1.95;;
11614;SDS011;5863;52.832;4.758;2022-10-16T11:41:59;11.30;;;2.17;;
11614;SDS011;5863;52.832;4.758;2022-10-16T11:44:34;8.65;;;1.60;;
11614;SDS011;5863;52.832;4.758;2022-10-16T11:47:10;6.80;;;1.42;;
11614;SDS011;5863;52.832;4.758;2022-10-16T11:49:45;11.07;;;2.05;;
11614;SDS011;5863;52.832;4.758;2022-10-16T11:52:17;10.52;;;1.92;;
11614;SDS011;5863;52.832;4.758;2022-10-16T11:54:51;6.78;;;1.70;;
11614;SDS011;5863;52.832;4.758;2022-10-16T11:57:22;8.27;;;1.90;;
11614;SDS011;5863;52.832;4.758;2022-10-16T11:59:54;11.40;;;2.17;;
11614;SDS011;5863;52.832;4.758;2022-10-16T12:05:22;8.32;;;1.77;;
11614;SDS011;5863;52.832;4.758;2022-10-16T12:07:59;7.68;;;1.85;;
11614;SDS011;5863;52.832;4.758;2022-10-16T12:10:32;9.00;;;1.90;;
11614;SDS011;5863;52.832;4.758;2022-10-16T12:13:02;9.93;;;2.15;;
11614;SDS011;5863;52.832;4.758;2022-10-16T12:15:30;11.25;;;2.35;;
11614;SDS011;5863;52.832;4.758;2022-10-16T12:17:57;9.60;;;2.45;;
11614;SDS011;5863;52.832;4.758;2022-10-16T12:20:26;13.25;;;2.50;;
11614;SDS011;5863;52.832;4.758;2022-10-16T12:22:57;7.10;;;1.92;;
11614;SDS011;5863;52.832;4.758;2022-10-16T12:25:26;10.07;;;2.58;;
11614;SDS011;5863;52.832;4.758;2022-10-16T12:27:58;10.05;;;1.95;;
11614;SDS011;5863;52.832;4.758;2022-10-16T12:30:27;10.40;;;2.38;;
11614;SDS011;5863;52.832;4.758;2022-10-16T12:32:56;8.32;;;2.20;;
11614;SDS011;5863;52.832;4.758;2022-10-16T12:35:25;9.73;;;1.80;;
11614;SDS011;5863;52.832;4.758;2022-10-16T12:37:54;14.32;;;2.65;;
11614;SDS011;5863;52.832;4.758;2022-10-16T12:40:32;12.10;;;2.50;;
11614;SDS011;5863;52.832;4.758;2022-10-16T12:43:11;12.13;;;2.47;;
11614;SDS011;5863;52.832;4.758;2022-10-16T12:45:58;9.75;;;1.83;;
11614;SDS011;5863;52.832;4.758;2022-10-16T12:48:27;7.35;;;2.20;;
11614;SDS011;5863;52.832;4.758;2022-10-16T12:50:54;8.93;;;2.15;;
11614;SDS011;5863;52.832;4.758;2022-10-16T12:53:21;13.88;;;2.97;;
11614;SDS011;5863;52.832;4.758;2022-10-16T12:55:52;11.25;;;2.50;;
11614;SDS011;5863;52.832;4.758;2022-10-16T12:58:44;7.85;;;2.20;;
11614;SDS011;5863;52.832;4.758;2022-10-16T13:01:28;11.13;;;2.60;;
11614;SDS011;5863;52.832;4.758;2022-10-16T13:04:10;11.73;;;2.40;;
11614;SDS011;5863;52.832;4.758;2022-10-16T13:06:55;13.05;;;2.65;;
11614;SDS011;5863;52.832;4.758;2022-10-16T13:09:38;17.33;;;3.63;;
11614;SDS011;5863;52.832;4.758;2022-10-16T13:12:16;15.32;;;3.22;;
11614;SDS011;5863;52.832;4.758;2022-10-16T13:15:00;13.18;;;2.47;;
11614;SDS011;5863;52.832;4.758;2022-10-16T13:17:44;13.02;;;2.10;;
11614;SDS011;5863;52.832;4.758;2022-10-16T13:20:17;12.32;;;2.72;;
11614;SDS011;5863;52.832;4.758;2022-10-16T13:22:51;13.57;;;2.97;;
11614;SDS011;5863;52.832;4.758;2022-10-16T13:25:33;9.85;;;2.50;;
11614;SDS011;5863;52.832;4.758;2022-10-16T13:28:08;13.10;;;2.45;;
11614;SDS011;5863;52.832;4.758;2022-10-16T13:30:38;9.75;;;2.25;;
11614;SDS011;5863;52.832;4.758;2022-10-16T13:33:12;10.52;;;2.45;;
11614;SDS011;5863;52.832;4.758;2022-10-16T13:35:47;11.05;;;2.03;;
11614;SDS011;5863;52.832;4.758;2022-10-16T13:38:17;10.75;;;2.15;;
11614;SDS011;5863;52.832;4.758;2022-10-16T13:40:49;9.20;;;1.92;;
11614;SDS011;5863;52.832;4.758;2022-10-16T13:43:18;11.90;;;2.10;;
11614;SDS011;5863;52.832;4.758;2022-10-16T13:46:00;11.30;;;2.10;;
11614;SDS011;5863;52.832;4.758;2022-10-16T13:48:28;14.05;;;2.70;;
11614;SDS011;5863;52.832;4.758;2022-10-16T13:50:59;8.80;;;2.03;;
11614;SDS011;5863;52.832;4.758;2022-10-16T13:53:31;14.05;;;2.45;;
11614;SDS011;5863;52.832;4.758;2022-10-16T13:55:59;9.18;;;2.00;;
11614;SDS011;5863;52.832;4.758;2022-10-16T13:58:27;9.55;;;1.90;;
11614;SDS011;5863;52.832;4.758;2022-10-16T14:00:55;7.47;;;2.10;;
11614;SDS011;5863;52.832;4.758;2022-10-16T14:03:24;7.97;;;2.08;;
11614;SDS011;5863;52.832;4.758;2022-10-16T14:05:52;12.60;;;2.20;;
11614;SDS011;5863;52.832;4.758;2022-10-16T14:08:21;7.55;;;1.83;;
11614;SDS011;5863;52.832;4.758;2022-10-16T14:10:50;11.57;;;2.47;;
11614;SDS011;5863;52.832;4.758;2022-10-16T14:13:19;8.88;;;2.05;;
11614;SDS011;5863;52.832;4.758;2022-10-16T14:15:51;10.10;;;1.92;;
11614;SDS011;5863;52.832;4.758;2022-10-16T14:18:20;12.68;;;2.50;;
11614;SDS011;5863;52.832;4.758;2022-10-16T14:20:50;11.60;;;2.10;;
11614;SDS011;5863;52.832;4.758;2022-10-16T14:23:20;8.80;;;1.90;;
11614;SDS011;5863;52.832;4.758;2022-10-16T14:25:51;10.10;;;2.25;;
11614;SDS011;5863;52.832;4.758;2022-10-16T14:28:18;12.50;;;2.65;;
11614;SDS011;5863;52.832;4.758;2022-10-16T14:30:51;8.65;;;2.17;;
11614;SDS011;5863;52.832;4.758;2022-10-16T14:33:23;8.95;;;2.22;;
11614;SDS011;5863;52.832;4.758;2022-10-16T14:36:01;11.23;;;2.08;;
11614;SDS011;5863;52.832;4.758;2022-10-16T14:38:29;8.30;;;2.13;;
11614;SDS011;5863;52.832;4.758;2022-10-16T14:40:57;10.73;;;2.33;;
11614;SDS011;5863;52.832;4.758;2022-10-16T14:43:29;12.90;;;2.75;;
11614;SDS011;5863;52.832;4.758;2022-10-16T14:45:58;8.13;;;2.30;;
11614;SDS011;5863;52.832;4.758;2022-10-16T14:48:26;10.95;;;2.28;;
11614;SDS011;5863;52.832;4.758;2022-10-16T14:50:53;7.43;;;1.90;;
11614;SDS011;5863;52.832;4.758;2022-10-16T14:53:21;7.47;;;1.95;;
11614;SDS011;5863;52.832;4.758;2022-10-16T14:55:48;10.23;;;2.22;;
11614;SDS011;5863;52.832;4.758;2022-10-16T14:58:15;10.20;;;1.83;;
11614;SDS011;5863;52.832;4.758;2022-10-16T15:00:43;6.57;;;1.63;;
11614;SDS011;5863;52.832;4.758;2022-10-16T15:03:11;7.90;;;1.88;;
11614;SDS011;5863;52.832;4.758;2022-10-16T15:05:38;7.05;;;1.55;;
11614;SDS011;5863;52.832;4.758;2022-10-16T15:08:05;9.48;;;1.83;;
11614;SDS011;5863;52.832;4.758;2022-10-16T15:10:35;6.10;;;1.60;;
11614;SDS011;5863;52.832;4.758;2022-10-16T15:13:05;5.97;;;1.70;;